Sunday, April 22, 2018, 9:45 PM EDT
Back to Local

KCXY, Harrisburg Capital City

Location: New Cumberland, PA, United States Lat: 40.217
Local Time: 9:45 PM EDT ( 1:45 GMT) Lon: -76.85
Time Zone: US/Eastern Elev: 347 ft

Show me the last for .
Show Decoded

2018-04-22 20:56 METAR KCXY 230056Z 00000KT 10SM CLR 13/01 A3035 RMK AO2 SLP280 T01330011 =
2018-04-22 19:56 METAR KCXY 222356Z 11004KT 10SM CLR 17/M02 A3033 RMK AO2 SLP273 T01671017 10189
                 20167 55001 =
2018-04-22 18:56 METAR KCXY 222256Z 10006KT 10SM CLR 17/M01 A3032 RMK AO2 SLP271 T01721006 =
2018-04-22 17:56 METAR KCXY 222156Z 10005KT 10SM CLR 18/M02 A3033 RMK AO2 SLP272 T01831017 =
2018-04-22 16:56 METAR KCXY 222056Z 10005KT 10SM CLR 18/M02 A3034 RMK AO2 SLP274 T01831017 56017
                 =
2018-04-22 15:56 METAR KCXY 221956Z 08007KT 10SM CLR 18/M02 A3034 RMK AO2 SLP276 T01831017 =
2018-04-22 14:56 METAR KCXY 221856Z 08005KT 10SM CLR 18/M03 A3036 RMK AO2 SLP284 T01781028 =
2018-04-22 13:56 METAR KCXY 221756Z 08005KT 10SM CLR 18/M02 A3039 RMK AO2 SLP291 T01781022 10178
                 20083 56016 =
2018-04-22 12:56 METAR KCXY 221656Z 12004KT 10SM CLR 16/M04 A3040 RMK AO2 SLP295 T01611039 =
2018-04-22 11:56 METAR KCXY 221556Z 11007KT 10SM CLR 15/M05 A3042 RMK AO2 SLP302 T01501050 =
2018-04-22 10:56 METAR KCXY 221456Z 11005KT 10SM CLR 15/M05 A3043 RMK AO2 SLP307 T01501050 50001
                 =
2018-04-22 09:56 METAR KCXY 221356Z 12007KT 10SM CLR 13/M05 A3044 RMK AO2 SLP309 T01331050 =
2018-04-22 08:56 METAR KCXY 221256Z 10005KT 10SM CLR 12/M04 A3045 RMK AO2 SLP313 T01171039 =
2018-04-22 07:56 METAR KCXY 221156Z 00000KT 10SM CLR 08/02 A3043 RMK AO2 SLP307 T00830017 10089
                 20033 52013 =
2018-04-22 06:56 METAR KCXY 221056Z 00000KT 10SM CLR 04/M01 A3042 RMK AO2 SLP305 T00391006 =
2018-04-22 05:56 METAR KCXY 220956Z AUTO 00000KT 10SM CLR 04/00 A3040 RMK AO2 SLP298 T00440000 =
2018-04-22 04:56 METAR KCXY 220856Z AUTO 00000KT 10SM CLR 06/01 A3039 RMK AO2 SLP295 T00560006
                 53004 =
2018-04-22 03:56 METAR KCXY 220756Z AUTO 00000KT 10SM CLR 06/02 A3039 RMK AO2 SLP293 T00610017 =
2018-04-22 02:56 METAR KCXY 220656Z AUTO 00000KT 10SM CLR 08/02 A3038 RMK AO2 SLP288 T00780017 =
2018-04-22 01:56 METAR KCXY 220556Z AUTO 00000KT 10SM CLR 08/01 A3038 RMK AO2 SLP291 T00780011
                 10150 20061 51008 =
2018-04-22 00:56 METAR KCXY 220456Z AUTO 00000KT 10SM CLR 08/01 A3038 RMK AO2 SLP290 T00830011
                 401670006 =
2018-04-21 23:56 METAR KCXY 220356Z AUTO 00000KT 10SM CLR 08/01 A3037 RMK AO2 SLP285 T00830006 =
2018-04-21 22:56 METAR KCXY 220256Z AUTO 00000KT 10SM CLR 10/00 A3036 RMK AO2 SLP282 T01000000
                 53008 =
2018-04-21 21:56 METAR KCXY 220156Z AUTO 00000KT 10SM CLR 11/01 A3034 RMK AO2 SLP278 T01110011 =

Support USWX by starting your Amazon purchase here.